sensor_id;sensor_type;location;lat;lon;timestamp;P1;durP1;ratioP1;P2;durP2;ratioP2
77362;SDS011;66428;47.322;9.432;2023-06-19T00:00:21;7.70;;;4.90;;
77362;SDS011;66428;47.322;9.432;2023-06-19T00:02:49;6.93;;;5.38;;
77362;SDS011;66428;47.322;9.432;2023-06-19T00:05:17;6.15;;;4.88;;
77362;SDS011;66428;47.322;9.432;2023-06-19T00:07:46;8.35;;;5.32;;
77362;SDS011;66428;47.322;9.432;2023-06-19T00:10:14;7.07;;;6.38;;
77362;SDS011;66428;47.322;9.432;2023-06-19T00:12:42;5.65;;;4.35;;
77362;SDS011;66428;47.322;9.432;2023-06-19T00:15:10;5.68;;;4.63;;
77362;SDS011;66428;47.322;9.432;2023-06-19T00:17:40;7.22;;;4.88;;
77362;SDS011;66428;47.322;9.432;2023-06-19T00:20:08;6.00;;;4.50;;
77362;SDS011;66428;47.322;9.432;2023-06-19T00:22:36;6.45;;;5.18;;
77362;SDS011;66428;47.322;9.432;2023-06-19T00:25:06;6.78;;;5.15;;
77362;SDS011;66428;47.322;9.432;2023-06-19T00:27:34;6.63;;;4.60;;
77362;SDS011;66428;47.322;9.432;2023-06-19T00:30:01;6.65;;;4.90;;
77362;SDS011;66428;47.322;9.432;2023-06-19T00:32:29;6.90;;;5.30;;
77362;SDS011;66428;47.322;9.432;2023-06-19T00:34:57;6.22;;;4.95;;
77362;SDS011;66428;47.322;9.432;2023-06-19T00:37:27;5.97;;;4.70;;
77362;SDS011;66428;47.322;9.432;2023-06-19T00:39:58;6.90;;;5.28;;
77362;SDS011;66428;47.322;9.432;2023-06-19T00:42:27;5.95;;;5.25;;
77362;SDS011;66428;47.322;9.432;2023-06-19T00:44:55;7.95;;;5.38;;
77362;SDS011;66428;47.322;9.432;2023-06-19T00:47:23;6.68;;;5.38;;
77362;SDS011;66428;47.322;9.432;2023-06-19T00:49:52;6.28;;;4.72;;
77362;SDS011;66428;47.322;9.432;2023-06-19T00:52:20;6.38;;;4.93;;
77362;SDS011;66428;47.322;9.432;2023-06-19T00:54:47;6.43;;;5.07;;
77362;SDS011;66428;47.322;9.432;2023-06-19T00:57:15;7.43;;;4.75;;
77362;SDS011;66428;47.322;9.432;2023-06-19T00:59:47;6.82;;;5.53;;
77362;SDS011;66428;47.322;9.432;2023-06-19T01:02:15;7.03;;;5.35;;
77362;SDS011;66428;47.322;9.432;2023-06-19T01:04:43;8.02;;;5.32;;
77362;SDS011;66428;47.322;9.432;2023-06-19T01:07:12;5.75;;;4.93;;
77362;SDS011;66428;47.322;9.432;2023-06-19T01:09:44;6.30;;;4.82;;
77362;SDS011;66428;47.322;9.432;2023-06-19T01:12:20;5.80;;;4.63;;
77362;SDS011;66428;47.322;9.432;2023-06-19T01:14:53;5.50;;;4.38;;
77362;SDS011;66428;47.322;9.432;2023-06-19T01:17:22;7.28;;;5.03;;
77362;SDS011;66428;47.322;9.432;2023-06-19T01:19:50;6.05;;;5.15;;
77362;SDS011;66428;47.322;9.432;2023-06-19T01:22:26;6.15;;;4.63;;
77362;SDS011;66428;47.322;9.432;2023-06-19T01:24:55;6.53;;;4.93;;
77362;SDS011;66428;47.322;9.432;2023-06-19T01:27:24;5.60;;;4.90;;
77362;SDS011;66428;47.322;9.432;2023-06-19T01:29:56;6.63;;;5.03;;
77362;SDS011;66428;47.322;9.432;2023-06-19T01:32:25;6.00;;;4.88;;
77362;SDS011;66428;47.322;9.432;2023-06-19T01:34:55;5.90;;;4.72;;
77362;SDS011;66428;47.322;9.432;2023-06-19T01:37:28;6.40;;;4.85;;
77362;SDS011;66428;47.322;9.432;2023-06-19T01:39:59;6.40;;;4.82;;
77362;SDS011;66428;47.322;9.432;2023-06-19T01:42:33;7.88;;;4.80;;
77362;SDS011;66428;47.322;9.432;2023-06-19T01:45:02;6.80;;;5.40;;
77362;SDS011;66428;47.322;9.432;2023-06-19T01:47:30;8.18;;;5.95;;
77362;SDS011;66428;47.322;9.432;2023-06-19T01:50:00;6.00;;;4.63;;
77362;SDS011;66428;47.322;9.432;2023-06-19T01:52:32;6.93;;;5.25;;
77362;SDS011;66428;47.322;9.432;2023-06-19T01:55:00;7.78;;;5.53;;
77362;SDS011;66428;47.322;9.432;2023-06-19T01:57:27;6.20;;;4.90;;
77362;SDS011;66428;47.322;9.432;2023-06-19T01:59:57;7.28;;;5.05;;
77362;SDS011;66428;47.322;9.432;2023-06-19T02:02:25;5.97;;;4.45;;
77362;SDS011;66428;47.322;9.432;2023-06-19T02:04:55;6.68;;;4.60;;
77362;SDS011;66428;47.322;9.432;2023-06-19T02:07:24;5.40;;;4.57;;
77362;SDS011;66428;47.322;9.432;2023-06-19T02:09:53;8.02;;;5.05;;
77362;SDS011;66428;47.322;9.432;2023-06-19T02:12:21;6.20;;;4.72;;
77362;SDS011;66428;47.322;9.432;2023-06-19T02:14:49;6.75;;;4.72;;
77362;SDS011;66428;47.322;9.432;2023-06-19T02:17:19;6.32;;;4.97;;
77362;SDS011;66428;47.322;9.432;2023-06-19T02:19:49;6.05;;;4.90;;
77362;SDS011;66428;47.322;9.432;2023-06-19T02:22:17;5.75;;;4.50;;
77362;SDS011;66428;47.322;9.432;2023-06-19T02:24:47;7.88;;;4.82;;
77362;SDS011;66428;47.322;9.432;2023-06-19T02:27:16;7.45;;;5.13;;
77362;SDS011;66428;47.322;9.432;2023-06-19T02:29:44;5.93;;;4.43;;
77362;SDS011;66428;47.322;9.432;2023-06-19T02:32:12;6.40;;;4.68;;
77362;SDS011;66428;47.322;9.432;2023-06-19T02:34:39;6.47;;;5.43;;
77362;SDS011;66428;47.322;9.432;2023-06-19T02:37:07;6.10;;;4.40;;
77362;SDS011;66428;47.322;9.432;2023-06-19T02:39:36;7.55;;;5.47;;
77362;SDS011;66428;47.322;9.432;2023-06-19T02:42:04;6.20;;;4.55;;
77362;SDS011;66428;47.322;9.432;2023-06-19T02:44:36;5.80;;;4.93;;
77362;SDS011;66428;47.322;9.432;2023-06-19T02:47:07;5.93;;;4.85;;
77362;SDS011;66428;47.322;9.432;2023-06-19T02:49:37;6.80;;;5.10;;
77362;SDS011;66428;47.322;9.432;2023-06-19T02:52:08;7.32;;;5.25;;
77362;SDS011;66428;47.322;9.432;2023-06-19T02:54:36;6.15;;;4.93;;
77362;SDS011;66428;47.322;9.432;2023-06-19T02:57:04;5.43;;;4.32;;
77362;SDS011;66428;47.322;9.432;2023-06-19T02:59:31;6.05;;;4.50;;
77362;SDS011;66428;47.322;9.432;2023-06-19T03:02:01;6.13;;;5.20;;
77362;SDS011;66428;47.322;9.432;2023-06-19T03:04:28;6.85;;;5.13;;
77362;SDS011;66428;47.322;9.432;2023-06-19T03:06:56;6.63;;;5.13;;
77362;SDS011;66428;47.322;9.432;2023-06-19T03:09:24;6.60;;;4.57;;
77362;SDS011;66428;47.322;9.432;2023-06-19T03:11:54;6.32;;;4.82;;
77362;SDS011;66428;47.322;9.432;2023-06-19T03:14:22;7.05;;;4.72;;
77362;SDS011;66428;47.322;9.432;2023-06-19T03:16:50;7.18;;;4.85;;
77362;SDS011;66428;47.322;9.432;2023-06-19T03:19:19;7.22;;;5.18;;
77362;SDS011;66428;47.322;9.432;2023-06-19T03:21:49;6.78;;;5.03;;
77362;SDS011;66428;47.322;9.432;2023-06-19T03:24:19;7.45;;;5.50;;
77362;SDS011;66428;47.322;9.432;2023-06-19T03:26:49;8.85;;;5.65;;
77362;SDS011;66428;47.322;9.432;2023-06-19T03:29:17;7.25;;;5.10;;
77362;SDS011;66428;47.322;9.432;2023-06-19T03:31:52;8.18;;;5.40;;
77362;SDS011;66428;47.322;9.432;2023-06-19T03:34:27;6.90;;;5.07;;
77362;SDS011;66428;47.322;9.432;2023-06-19T03:36:58;6.20;;;5.00;;
77362;SDS011;66428;47.322;9.432;2023-06-19T03:39:26;6.47;;;4.90;;
77362;SDS011;66428;47.322;9.432;2023-06-19T03:41:59;6.20;;;5.15;;
77362;SDS011;66428;47.322;9.432;2023-06-19T03:44:30;7.70;;;5.57;;
77362;SDS011;66428;47.322;9.432;2023-06-19T03:46:58;7.55;;;5.05;;
77362;SDS011;66428;47.322;9.432;2023-06-19T03:49:27;9.75;;;6.30;;
77362;SDS011;66428;47.322;9.432;2023-06-19T03:51:55;9.07;;;7.95;;
77362;SDS011;66428;47.322;9.432;2023-06-19T03:54:23;8.43;;;6.68;;
77362;SDS011;66428;47.322;9.432;2023-06-19T03:56:51;8.15;;;5.95;;
77362;SDS011;66428;47.322;9.432;2023-06-19T03:59:19;8.45;;;5.60;;
77362;SDS011;66428;47.322;9.432;2023-06-19T04:01:47;6.88;;;5.45;;
77362;SDS011;66428;47.322;9.432;2023-06-19T04:04:16;6.38;;;4.85;;
77362;SDS011;66428;47.322;9.432;2023-06-19T04:06:48;7.15;;;5.72;;
77362;SDS011;66428;47.322;9.432;2023-06-19T04:09:16;6.50;;;5.15;;
77362;SDS011;66428;47.322;9.432;2023-06-19T04:11:44;7.70;;;5.97;;
77362;SDS011;66428;47.322;9.432;2023-06-19T04:14:12;6.82;;;5.18;;
77362;SDS011;66428;47.322;9.432;2023-06-19T04:16:40;7.68;;;6.00;;
77362;SDS011;66428;47.322;9.432;2023-06-19T04:19:09;7.55;;;5.82;;
77362;SDS011;66428;47.322;9.432;2023-06-19T04:21:38;6.50;;;5.75;;
77362;SDS011;66428;47.322;9.432;2023-06-19T04:24:10;7.30;;;5.28;;
77362;SDS011;66428;47.322;9.432;2023-06-19T04:26:38;7.10;;;5.70;;
77362;SDS011;66428;47.322;9.432;2023-06-19T04:29:05;7.85;;;6.10;;
77362;SDS011;66428;47.322;9.432;2023-06-19T04:31:33;5.93;;;5.00;;
77362;SDS011;66428;47.322;9.432;2023-06-19T04:34:10;9.02;;;5.80;;
77362;SDS011;66428;47.322;9.432;2023-06-19T04:36:38;8.30;;;5.45;;
77362;SDS011;66428;47.322;9.432;2023-06-19T04:39:06;8.05;;;5.97;;
77362;SDS011;66428;47.322;9.432;2023-06-19T04:41:35;11.45;;;6.63;;
77362;SDS011;66428;47.322;9.432;2023-06-19T04:44:04;7.68;;;6.40;;
77362;SDS011;66428;47.322;9.432;2023-06-19T04:46:32;11.07;;;6.30;;
77362;SDS011;66428;47.322;9.432;2023-06-19T04:49:02;11.13;;;6.35;;
77362;SDS011;66428;47.322;9.432;2023-06-19T04:51:30;8.43;;;6.20;;
77362;SDS011;66428;47.322;9.432;2023-06-19T04:54:01;10.00;;;6.80;;
77362;SDS011;66428;47.322;9.432;2023-06-19T04:56:31;10.20;;;6.68;;
77362;SDS011;66428;47.322;9.432;2023-06-19T04:59:00;10.82;;;6.97;;
77362;SDS011;66428;47.322;9.432;2023-06-19T05:01:29;9.77;;;6.43;;
77362;SDS011;66428;47.322;9.432;2023-06-19T05:03:57;9.35;;;6.53;;
77362;SDS011;66428;47.322;9.432;2023-06-19T05:08:56;8.35;;;6.38;;
77362;SDS011;66428;47.322;9.432;2023-06-19T05:11:24;11.82;;;6.57;;
77362;SDS011;66428;47.322;9.432;2023-06-19T05:13:54;11.18;;;6.82;;
77362;SDS011;66428;47.322;9.432;2023-06-19T05:16:23;8.77;;;7.10;;
77362;SDS011;66428;47.322;9.432;2023-06-19T05:18:53;8.43;;;7.00;;
77362;SDS011;66428;47.322;9.432;2023-06-19T05:21:21;9.27;;;6.22;;
77362;SDS011;66428;47.322;9.432;2023-06-19T05:23:49;8.40;;;6.97;;
77362;SDS011;66428;47.322;9.432;2023-06-19T05:26:19;8.55;;;6.40;;
77362;SDS011;66428;47.322;9.432;2023-06-19T05:28:48;10.80;;;6.78;;
77362;SDS011;66428;47.322;9.432;2023-06-19T05:31:16;8.65;;;6.80;;
77362;SDS011;66428;47.322;9.432;2023-06-19T05:33:48;9.38;;;7.25;;
77362;SDS011;66428;47.322;9.432;2023-06-19T05:36:16;9.43;;;6.45;;
77362;SDS011;66428;47.322;9.432;2023-06-19T05:38:43;8.73;;;7.13;;
77362;SDS011;66428;47.322;9.432;2023-06-19T05:41:11;8.52;;;7.35;;
77362;SDS011;66428;47.322;9.432;2023-06-19T05:43:39;8.90;;;6.82;;
77362;SDS011;66428;47.322;9.432;2023-06-19T05:46:07;9.05;;;6.82;;
77362;SDS011;66428;47.322;9.432;2023-06-19T05:48:37;10.23;;;8.05;;
77362;SDS011;66428;47.322;9.432;2023-06-19T05:51:08;10.15;;;7.25;;
77362;SDS011;66428;47.322;9.432;2023-06-19T05:53:36;9.15;;;6.72;;
77362;SDS011;66428;47.322;9.432;2023-06-19T05:56:05;9.35;;;7.22;;
77362;SDS011;66428;47.322;9.432;2023-06-19T05:58:35;7.95;;;6.47;;
77362;SDS011;66428;47.322;9.432;2023-06-19T06:01:03;8.48;;;7.55;;
77362;SDS011;66428;47.322;9.432;2023-06-19T06:03:33;9.48;;;7.05;;
77362;SDS011;66428;47.322;9.432;2023-06-19T06:06:02;8.13;;;6.80;;
77362;SDS011;66428;47.322;9.432;2023-06-19T06:08:31;11.55;;;7.97;;
77362;SDS011;66428;47.322;9.432;2023-06-19T06:10:59;8.88;;;7.07;;
77362;SDS011;66428;47.322;9.432;2023-06-19T06:13:27;11.35;;;7.38;;
77362;SDS011;66428;47.322;9.432;2023-06-19T06:15:54;9.00;;;7.55;;
77362;SDS011;66428;47.322;9.432;2023-06-19T06:18:22;9.70;;;6.90;;
77362;SDS011;66428;47.322;9.432;2023-06-19T06:20:50;10.40;;;8.63;;
77362;SDS011;66428;47.322;9.432;2023-06-19T06:23:18;10.10;;;7.82;;
77362;SDS011;66428;47.322;9.432;2023-06-19T06:25:47;11.48;;;8.07;;
77362;SDS011;66428;47.322;9.432;2023-06-19T06:28:14;10.32;;;7.78;;
77362;SDS011;66428;47.322;9.432;2023-06-19T06:30:42;9.75;;;8.05;;
77362;SDS011;66428;47.322;9.432;2023-06-19T06:33:10;10.65;;;8.23;;
77362;SDS011;66428;47.322;9.432;2023-06-19T06:35:38;11.23;;;8.65;;
77362;SDS011;66428;47.322;9.432;2023-06-19T06:38:05;9.43;;;7.38;;
77362;SDS011;66428;47.322;9.432;2023-06-19T06:40:33;9.98;;;7.30;;
77362;SDS011;66428;47.322;9.432;2023-06-19T06:43:02;10.38;;;7.80;;
77362;SDS011;66428;47.322;9.432;2023-06-19T06:45:30;10.07;;;8.50;;
77362;SDS011;66428;47.322;9.432;2023-06-19T06:48:00;10.38;;;7.13;;
77362;SDS011;66428;47.322;9.432;2023-06-19T06:50:27;8.13;;;6.90;;
77362;SDS011;66428;47.322;9.432;2023-06-19T06:52:58;9.32;;;7.47;;
77362;SDS011;66428;47.322;9.432;2023-06-19T06:55:26;9.18;;;6.63;;
77362;SDS011;66428;47.322;9.432;2023-06-19T06:57:53;8.45;;;6.88;;
77362;SDS011;66428;47.322;9.432;2023-06-19T07:00:22;9.75;;;7.97;;
77362;SDS011;66428;47.322;9.432;2023-06-19T07:02:50;9.13;;;6.47;;
77362;SDS011;66428;47.322;9.432;2023-06-19T07:05:18;8.27;;;6.70;;
77362;SDS011;66428;47.322;9.432;2023-06-19T07:07:46;8.75;;;6.55;;
77362;SDS011;66428;47.322;9.432;2023-06-19T07:10:16;7.20;;;5.93;;
77362;SDS011;66428;47.322;9.432;2023-06-19T07:12:45;6.65;;;5.47;;
77362;SDS011;66428;47.322;9.432;2023-06-19T07:15:12;6.75;;;4.80;;
77362;SDS011;66428;47.322;9.432;2023-06-19T07:17:44;7.20;;;4.95;;
77362;SDS011;66428;47.322;9.432;2023-06-19T07:20:12;6.18;;;4.72;;
77362;SDS011;66428;47.322;9.432;2023-06-19T07:22:40;9.38;;;6.82;;
77362;SDS011;66428;47.322;9.432;2023-06-19T07:25:11;8.65;;;6.15;;
77362;SDS011;66428;47.322;9.432;2023-06-19T07:27:39;8.70;;;6.45;;
77362;SDS011;66428;47.322;9.432;2023-06-19T07:30:08;7.65;;;5.43;;
77362;SDS011;66428;47.322;9.432;2023-06-19T07:32:40;6.15;;;5.45;;
77362;SDS011;66428;47.322;9.432;2023-06-19T07:35:09;8.30;;;7.10;;
77362;SDS011;66428;47.322;9.432;2023-06-19T07:37:37;8.07;;;6.50;;
77362;SDS011;66428;47.322;9.432;2023-06-19T07:40:05;8.90;;;6.90;;
77362;SDS011;66428;47.322;9.432;2023-06-19T07:42:36;9.27;;;7.57;;
77362;SDS011;66428;47.322;9.432;2023-06-19T07:45:04;12.73;;;7.50;;
77362;SDS011;66428;47.322;9.432;2023-06-19T07:47:32;7.75;;;6.95;;
77362;SDS011;66428;47.322;9.432;2023-06-19T07:50:00;9.20;;;7.28;;
77362;SDS011;66428;47.322;9.432;2023-06-19T07:52:32;8.52;;;6.75;;
77362;SDS011;66428;47.322;9.432;2023-06-19T07:55:00;8.95;;;7.63;;
77362;SDS011;66428;47.322;9.432;2023-06-19T07:57:28;8.23;;;7.35;;
77362;SDS011;66428;47.322;9.432;2023-06-19T07:59:55;7.95;;;6.28;;
77362;SDS011;66428;47.322;9.432;2023-06-19T08:02:23;8.25;;;6.75;;
77362;SDS011;66428;47.322;9.432;2023-06-19T08:04:51;8.30;;;6.93;;
77362;SDS011;66428;47.322;9.432;2023-06-19T08:07:21;8.27;;;6.85;;
77362;SDS011;66428;47.322;9.432;2023-06-19T08:09:50;7.63;;;6.40;;
77362;SDS011;66428;47.322;9.432;2023-06-19T08:12:33;7.15;;;6.35;;
77362;SDS011;66428;47.322;9.432;2023-06-19T08:15:01;8.75;;;7.20;;
77362;SDS011;66428;47.322;9.432;2023-06-19T08:17:28;9.80;;;6.78;;
77362;SDS011;66428;47.322;9.432;2023-06-19T08:19:56;7.45;;;5.95;;
77362;SDS011;66428;47.322;9.432;2023-06-19T08:22:24;7.85;;;6.63;;
77362;SDS011;66428;47.322;9.432;2023-06-19T08:24:56;8.85;;;6.60;;
77362;SDS011;66428;47.322;9.432;2023-06-19T08:27:26;9.05;;;6.57;;
77362;SDS011;66428;47.322;9.432;2023-06-19T08:29:54;8.75;;;6.75;;
77362;SDS011;66428;47.322;9.432;2023-06-19T08:32:22;9.23;;;7.13;;
77362;SDS011;66428;47.322;9.432;2023-06-19T08:34:49;9.43;;;6.72;;
77362;SDS011;66428;47.322;9.432;2023-06-19T08:37:17;8.43;;;7.20;;
77362;SDS011;66428;47.322;9.432;2023-06-19T08:39:45;9.43;;;6.38;;
77362;SDS011;66428;47.322;9.432;2023-06-19T08:42:14;8.05;;;6.20;;
77362;SDS011;66428;47.322;9.432;2023-06-19T08:44:42;7.15;;;6.30;;
77362;SDS011;66428;47.322;9.432;2023-06-19T08:47:10;7.18;;;6.10;;
77362;SDS011;66428;47.322;9.432;2023-06-19T08:49:38;7.22;;;6.38;;
77362;SDS011;66428;47.322;9.432;2023-06-19T08:52:07;8.55;;;6.55;;
77362;SDS011;66428;47.322;9.432;2023-06-19T08:54:37;6.72;;;6.00;;
77362;SDS011;66428;47.322;9.432;2023-06-19T08:57:10;7.85;;;6.57;;
77362;SDS011;66428;47.322;9.432;2023-06-19T08:59:40;8.07;;;6.75;;
77362;SDS011;66428;47.322;9.432;2023-06-19T09:02:08;8.75;;;7.80;;
77362;SDS011;66428;47.322;9.432;2023-06-19T09:04:36;8.02;;;7.03;;
77362;SDS011;66428;47.322;9.432;2023-06-19T09:07:04;8.25;;;6.60;;
77362;SDS011;66428;47.322;9.432;2023-06-19T09:09:47;9.63;;;7.25;;
77362;SDS011;66428;47.322;9.432;2023-06-19T09:12:15;8.70;;;7.13;;
77362;SDS011;66428;47.322;9.432;2023-06-19T09:14:53;7.25;;;6.40;;
77362;SDS011;66428;47.322;9.432;2023-06-19T09:17:21;6.82;;;6.13;;
77362;SDS011;66428;47.322;9.432;2023-06-19T09:19:53;8.05;;;6.90;;
77362;SDS011;66428;47.322;9.432;2023-06-19T09:22:22;8.98;;;6.78;;
77362;SDS011;66428;47.322;9.432;2023-06-19T09:24:51;9.13;;;6.43;;
77362;SDS011;66428;47.322;9.432;2023-06-19T09:27:21;6.85;;;6.13;;
77362;SDS011;66428;47.322;9.432;2023-06-19T09:29:53;7.35;;;6.43;;
77362;SDS011;66428;47.322;9.432;2023-06-19T09:32:22;7.97;;;5.90;;
77362;SDS011;66428;47.322;9.432;2023-06-19T09:34:52;7.15;;;6.30;;
77362;SDS011;66428;47.322;9.432;2023-06-19T09:37:21;8.05;;;6.68;;
77362;SDS011;66428;47.322;9.432;2023-06-19T09:39:50;7.35;;;6.53;;
77362;SDS011;66428;47.322;9.432;2023-06-19T09:42:19;7.60;;;6.85;;
77362;SDS011;66428;47.322;9.432;2023-06-19T09:44:51;6.95;;;6.25;;
77362;SDS011;66428;47.322;9.432;2023-06-19T09:47:21;7.05;;;5.82;;
77362;SDS011;66428;47.322;9.432;2023-06-19T09:49:53;7.70;;;6.90;;
77362;SDS011;66428;47.322;9.432;2023-06-19T09:52:21;7.75;;;6.97;;
77362;SDS011;66428;47.322;9.432;2023-06-19T09:54:54;8.57;;;7.00;;
77362;SDS011;66428;47.322;9.432;2023-06-19T09:57:21;7.95;;;6.78;;
77362;SDS011;66428;47.322;9.432;2023-06-19T09:59:50;7.32;;;6.43;;
77362;SDS011;66428;47.322;9.432;2023-06-19T10:02:20;7.22;;;6.53;;
77362;SDS011;66428;47.322;9.432;2023-06-19T10:04:52;7.47;;;5.88;;
77362;SDS011;66428;47.322;9.432;2023-06-19T10:07:22;8.65;;;6.30;;
77362;SDS011;66428;47.322;9.432;2023-06-19T10:09:57;7.22;;;6.50;;
77362;SDS011;66428;47.322;9.432;2023-06-19T10:12:34;7.25;;;6.55;;
77362;SDS011;66428;47.322;9.432;2023-06-19T10:15:09;9.68;;;6.70;;
77362;SDS011;66428;47.322;9.432;2023-06-19T10:17:43;7.55;;;6.40;;
77362;SDS011;66428;47.322;9.432;2023-06-19T10:20:19;6.95;;;6.10;;
77362;SDS011;66428;47.322;9.432;2023-06-19T10:22:56;7.68;;;6.85;;
77362;SDS011;66428;47.322;9.432;2023-06-19T10:25:27;8.80;;;6.90;;
77362;SDS011;66428;47.322;9.432;2023-06-19T10:27:57;7.35;;;6.55;;
77362;SDS011;66428;47.322;9.432;2023-06-19T10:30:24;9.68;;;6.22;;
77362;SDS011;66428;47.322;9.432;2023-06-19T10:32:54;6.95;;;6.25;;
77362;SDS011;66428;47.322;9.432;2023-06-19T10:35:22;8.23;;;7.38;;
77362;SDS011;66428;47.322;9.432;2023-06-19T10:37:53;7.40;;;6.32;;
77362;SDS011;66428;47.322;9.432;2023-06-19T10:40:24;7.03;;;6.32;;
77362;SDS011;66428;47.322;9.432;2023-06-19T10:42:52;6.93;;;6.15;;
77362;SDS011;66428;47.322;9.432;2023-06-19T10:45:19;6.70;;;6.00;;
77362;SDS011;66428;47.322;9.432;2023-06-19T10:48:00;7.07;;;6.15;;
77362;SDS011;66428;47.322;9.432;2023-06-19T10:50:28;7.55;;;6.47;;
77362;SDS011;66428;47.322;9.432;2023-06-19T10:52:59;7.63;;;5.60;;
77362;SDS011;66428;47.322;9.432;2023-06-19T10:55:27;7.53;;;6.50;;
77362;SDS011;66428;47.322;9.432;2023-06-19T10:57:54;6.82;;;6.00;;
77362;SDS011;66428;47.322;9.432;2023-06-19T11:00:23;7.03;;;6.32;;
77362;SDS011;66428;47.322;9.432;2023-06-19T11:02:51;8.02;;;6.65;;
77362;SDS011;66428;47.322;9.432;2023-06-19T11:05:21;7.65;;;6.78;;
77362;SDS011;66428;47.322;9.432;2023-06-19T11:07:52;6.50;;;5.78;;
77362;SDS011;66428;47.322;9.432;2023-06-19T11:10:20;6.70;;;6.00;;
77362;SDS011;66428;47.322;9.432;2023-06-19T11:12:49;7.45;;;6.72;;
77362;SDS011;66428;47.322;9.432;2023-06-19T11:15:17;7.45;;;6.65;;
77362;SDS011;66428;47.322;9.432;2023-06-19T11:17:47;7.68;;;6.72;;
77362;SDS011;66428;47.322;9.432;2023-06-19T11:20:14;7.15;;;6.45;;
77362;SDS011;66428;47.322;9.432;2023-06-19T11:22:44;6.72;;;6.05;;
77362;SDS011;66428;47.322;9.432;2023-06-19T11:25:12;8.55;;;6.53;;
77362;SDS011;66428;47.322;9.432;2023-06-19T11:27:40;7.68;;;6.63;;
77362;SDS011;66428;47.322;9.432;2023-06-19T11:30:08;6.90;;;6.20;;
77362;SDS011;66428;47.322;9.432;2023-06-19T11:32:36;6.97;;;5.65;;
77362;SDS011;66428;47.322;9.432;2023-06-19T11:35:08;6.30;;;5.70;;
77362;SDS011;66428;47.322;9.432;2023-06-19T11:37:39;6.90;;;5.80;;
77362;SDS011;66428;47.322;9.432;2023-06-19T11:40:12;6.75;;;6.05;;
77362;SDS011;66428;47.322;9.432;2023-06-19T11:42:46;7.03;;;6.30;;
77362;SDS011;66428;47.322;9.432;2023-06-19T11:45:16;6.97;;;6.25;;
77362;SDS011;66428;47.322;9.432;2023-06-19T11:47:44;6.95;;;5.63;;
77362;SDS011;66428;47.322;9.432;2023-06-19T11:50:14;5.95;;;5.32;;
77362;SDS011;66428;47.322;9.432;2023-06-19T11:52:43;6.05;;;4.97;;
77362;SDS011;66428;47.322;9.432;2023-06-19T11:55:14;5.68;;;5.07;;
77362;SDS011;66428;47.322;9.432;2023-06-19T11:57:43;5.72;;;4.95;;
77362;SDS011;66428;47.322;9.432;2023-06-19T12:00:15;6.25;;;4.80;;
77362;SDS011;66428;47.322;9.432;2023-06-19T12:02:46;5.55;;;4.90;;
77362;SDS011;66428;47.322;9.432;2023-06-19T12:05:14;5.57;;;4.85;;
77362;SDS011;66428;47.322;9.432;2023-06-19T12:07:45;5.82;;;4.72;;
77362;SDS011;66428;47.322;9.432;2023-06-19T12:10:14;5.03;;;4.30;;
77362;SDS011;66428;47.322;9.432;2023-06-19T12:12:42;5.47;;;4.10;;
77362;SDS011;66428;47.322;9.432;2023-06-19T12:15:09;4.82;;;4.32;;
77362;SDS011;66428;47.322;9.432;2023-06-19T12:17:37;5.10;;;4.60;;
77362;SDS011;66428;47.322;9.432;2023-06-19T12:20:06;5.03;;;4.53;;
77362;SDS011;66428;47.322;9.432;2023-06-19T12:22:34;5.05;;;4.55;;
77362;SDS011;66428;47.322;9.432;2023-06-19T12:25:02;5.22;;;4.68;;
77362;SDS011;66428;47.322;9.432;2023-06-19T12:27:32;5.95;;;4.80;;
77362;SDS011;66428;47.322;9.432;2023-06-19T12:30:00;7.20;;;5.25;;
77362;SDS011;66428;47.322;9.432;2023-06-19T12:32:27;6.25;;;5.65;;
77362;SDS011;66428;47.322;9.432;2023-06-19T12:34:55;6.97;;;4.60;;
77362;SDS011;66428;47.322;9.432;2023-06-19T12:37:25;5.47;;;4.97;;
77362;SDS011;66428;47.322;9.432;2023-06-19T12:39:53;4.78;;;4.38;;
77362;SDS011;66428;47.322;9.432;2023-06-19T12:42:23;4.93;;;4.50;;
77362;SDS011;66428;47.322;9.432;2023-06-19T12:44:54;5.75;;;4.90;;
77362;SDS011;66428;47.322;9.432;2023-06-19T12:47:22;5.95;;;5.03;;
77362;SDS011;66428;47.322;9.432;2023-06-19T12:49:53;4.45;;;4.05;;
77362;SDS011;66428;47.322;9.432;2023-06-19T12:52:21;4.50;;;4.10;;
77362;SDS011;66428;47.322;9.432;2023-06-19T12:54:48;6.55;;;4.70;;
77362;SDS011;66428;47.322;9.432;2023-06-19T12:57:17;5.80;;;4.57;;
77362;SDS011;66428;47.322;9.432;2023-06-19T12:59:45;6.45;;;5.07;;
77362;SDS011;66428;47.322;9.432;2023-06-19T13:02:14;5.80;;;5.03;;
77362;SDS011;66428;47.322;9.432;2023-06-19T13:07:12;6.25;;;5.10;;
77362;SDS011;66428;47.322;9.432;2023-06-19T13:09:39;5.80;;;4.70;;
77362;SDS011;66428;47.322;9.432;2023-06-19T13:12:07;6.30;;;4.97;;
77362;SDS011;66428;47.322;9.432;2023-06-19T13:14:35;5.20;;;4.70;;
77362;SDS011;66428;47.322;9.432;2023-06-19T13:17:04;5.32;;;4.55;;
77362;SDS011;66428;47.322;9.432;2023-06-19T13:19:34;5.65;;;4.78;;
77362;SDS011;66428;47.322;9.432;2023-06-19T13:22:02;5.88;;;5.07;;
77362;SDS011;66428;47.322;9.432;2023-06-19T13:24:30;7.00;;;5.05;;
77362;SDS011;66428;47.322;9.432;2023-06-19T13:27:00;5.43;;;4.55;;
77362;SDS011;66428;47.322;9.432;2023-06-19T13:29:28;5.07;;;4.43;;
77362;SDS011;66428;47.322;9.432;2023-06-19T13:31:56;6.28;;;5.22;;
77362;SDS011;66428;47.322;9.432;2023-06-19T13:34:24;5.45;;;4.63;;
77362;SDS011;66428;47.322;9.432;2023-06-19T13:36:53;4.85;;;4.35;;
77362;SDS011;66428;47.322;9.432;2023-06-19T13:39:20;5.60;;;4.93;;
77362;SDS011;66428;47.322;9.432;2023-06-19T13:41:48;5.45;;;4.95;;
77362;SDS011;66428;47.322;9.432;2023-06-19T13:44:16;5.75;;;4.85;;
77362;SDS011;66428;47.322;9.432;2023-06-19T13:46:45;6.68;;;5.22;;
77362;SDS011;66428;47.322;9.432;2023-06-19T13:49:13;6.10;;;4.80;;
77362;SDS011;66428;47.322;9.432;2023-06-19T13:51:41;6.50;;;5.43;;
77362;SDS011;66428;47.322;9.432;2023-06-19T13:54:12;6.03;;;5.07;;
77362;SDS011;66428;47.322;9.432;2023-06-19T13:56:39;5.63;;;4.97;;
77362;SDS011;66428;47.322;9.432;2023-06-19T13:59:08;5.05;;;4.55;;
77362;SDS011;66428;47.322;9.432;2023-06-19T14:01:36;5.43;;;4.90;;
77362;SDS011;66428;47.322;9.432;2023-06-19T14:04:06;5.72;;;5.13;;
77362;SDS011;66428;47.322;9.432;2023-06-19T14:06:35;6.38;;;5.13;;
77362;SDS011;66428;47.322;9.432;2023-06-19T14:09:04;6.28;;;5.55;;
77362;SDS011;66428;47.322;9.432;2023-06-19T14:11:33;5.78;;;5.03;;
77362;SDS011;66428;47.322;9.432;2023-06-19T14:14:03;5.35;;;4.80;;
77362;SDS011;66428;47.322;9.432;2023-06-19T14:16:30;5.93;;;5.32;;
77362;SDS011;66428;47.322;9.432;2023-06-19T14:18:58;6.55;;;5.03;;
77362;SDS011;66428;47.322;9.432;2023-06-19T14:21:26;5.55;;;4.88;;
77362;SDS011;66428;47.322;9.432;2023-06-19T14:23:54;5.35;;;4.85;;
77362;SDS011;66428;47.322;9.432;2023-06-19T14:26:21;5.15;;;4.65;;
77362;SDS011;66428;47.322;9.432;2023-06-19T14:28:51;5.30;;;4.80;;
77362;SDS011;66428;47.322;9.432;2023-06-19T14:31:25;6.43;;;5.82;;
77362;SDS011;66428;47.322;9.432;2023-06-19T14:33:53;5.80;;;4.93;;
77362;SDS011;66428;47.322;9.432;2023-06-19T14:36:21;5.25;;;4.75;;
77362;SDS011;66428;47.322;9.432;2023-06-19T14:38:49;6.43;;;5.82;;
77362;SDS011;66428;47.322;9.432;2023-06-19T14:41:17;6.15;;;5.38;;
77362;SDS011;66428;47.322;9.432;2023-06-19T14:43:44;5.60;;;5.10;;
77362;SDS011;66428;47.322;9.432;2023-06-19T14:46:13;6.70;;;5.53;;
77362;SDS011;66428;47.322;9.432;2023-06-19T14:49:01;6.20;;;4.72;;
77362;SDS011;66428;47.322;9.432;2023-06-19T14:51:31;5.70;;;4.95;;
77362;SDS011;66428;47.322;9.432;2023-06-19T14:53:59;6.90;;;5.30;;
77362;SDS011;66428;47.322;9.432;2023-06-19T14:56:27;5.82;;;4.97;;
77362;SDS011;66428;47.322;9.432;2023-06-19T14:58:54;5.05;;;4.45;;
77362;SDS011;66428;47.322;9.432;2023-06-19T15:01:24;5.38;;;4.72;;
77362;SDS011;66428;47.322;9.432;2023-06-19T15:03:54;5.47;;;4.82;;